createdAt,value
2019-01-26T00:00:48.594Z,24.23
2019-01-26T00:05:50.427Z,32.87
2019-01-26T00:10:52.197Z,34.97
2019-01-26T00:15:54.045Z,27.30
2019-01-26T00:20:55.873Z,26.27
2019-01-26T00:25:57.709Z,30.03
2019-01-26T00:30:59.784Z,25.50
2019-01-26T00:36:03.115Z,30.37
2019-01-26T00:41:05.623Z,33.57
2019-01-26T00:46:08.140Z,44.93
2019-01-26T00:51:17.267Z,27.83
2019-01-26T00:56:17.463Z,45.63
2019-01-26T01:01:19.681Z,28.13
2019-01-26T01:06:25.896Z,27.40
2019-01-26T01:11:26.066Z,23.60
2019-01-26T01:16:28.141Z,24.00
2019-01-26T01:21:30.340Z,27.37
2019-01-26T01:26:32.250Z,28.90
2019-01-26T01:31:34.439Z,29.23
2019-01-26T01:36:36.219Z,31.20
2019-01-26T01:41:40.592Z,32.10
2019-01-26T01:46:43.061Z,25.47
2019-01-26T01:51:44.974Z,31.03
2019-01-26T01:56:50.069Z,24.80
2019-01-26T02:01:51.928Z,30.43
2019-01-26T02:06:53.720Z,27.63
2019-01-26T02:11:56.858Z,33.93
2019-01-26T02:16:58.662Z,31.63
2019-01-26T02:22:00.490Z,33.17
2019-01-26T02:27:02.715Z,37.63
2019-01-26T02:32:05.457Z,23.30
2019-01-26T02:37:07.346Z,27.40
2019-01-26T02:42:10.330Z,23.73
2019-01-26T02:47:12.542Z,33.90
2019-01-26T02:52:14.513Z,41.67
2019-01-26T02:57:16.456Z,28.30
2019-01-26T03:02:18.788Z,25.80
2019-01-26T03:07:20.638Z,29.03
2019-01-26T03:12:23.047Z,31.07
2019-01-26T03:17:25.018Z,27.40
2019-01-26T03:22:26.808Z,33.97
2019-01-26T03:27:28.888Z,24.80
2019-01-26T03:32:30.694Z,26.83
2019-01-26T03:37:32.452Z,25.33
2019-01-26T03:42:34.557Z,25.27
2019-01-26T03:47:36.473Z,23.90
2019-01-26T03:52:38.202Z,25.90
2019-01-26T03:57:40.465Z,30.00
2019-01-26T04:02:42.193Z,25.57
2019-01-26T04:07:44.000Z,41.17
2019-01-26T04:12:45.807Z,38.17
2019-01-26T04:17:47.715Z,32.50
2019-01-26T04:22:49.940Z,30.53
2019-01-26T04:27:51.660Z,35.93
2019-01-26T04:32:53.433Z,42.07
2019-01-26T04:37:55.330Z,54.03
2019-01-26T04:42:57.128Z,39.23
2019-01-26T04:47:59.135Z,36.90
2019-01-26T04:53:01.465Z,39.80
2019-01-26T04:58:04.808Z,38.60
2019-01-26T05:03:06.900Z,33.90
2019-01-26T05:08:09.219Z,27.40
2019-01-26T05:13:11.711Z,29.30
2019-01-26T05:18:13.531Z,23.50
2019-01-26T05:23:15.385Z,21.10
2019-01-26T05:28:17.510Z,15.80
2019-01-26T05:33:19.351Z,13.77
2019-01-26T05:38:21.157Z,12.90
2019-01-26T05:43:23.367Z,14.10
2019-01-26T05:48:25.253Z,11.20
2019-01-26T05:53:27.361Z,9.60
2019-01-26T05:58:29.481Z,7.53
2019-01-26T06:03:31.348Z,6.27
2019-01-26T06:08:33.157Z,8.00
2019-01-26T06:13:35.143Z,8.07
2019-01-26T06:18:36.933Z,6.50
2019-01-26T06:23:38.946Z,6.73
2019-01-26T06:28:40.743Z,6.67
2019-01-26T06:33:42.899Z,7.27
2019-01-26T06:38:44.768Z,6.00
2019-01-26T06:43:46.561Z,7.47
2019-01-26T06:48:51.830Z,5.37
2019-01-26T06:53:53.547Z,3.70
2019-01-26T06:58:56.578Z,5.60
2019-01-26T07:03:58.840Z,4.33
2019-01-26T07:09:00.612Z,6.57
2019-01-26T07:14:02.498Z,6.83
2019-01-26T07:19:04.261Z,5.57
2019-01-26T07:24:06.099Z,5.10
2019-01-26T07:29:07.917Z,6.43
2019-01-26T07:34:09.672Z,4.60
2019-01-26T07:39:11.726Z,4.80
2019-01-26T07:44:13.954Z,5.80
2019-01-26T07:49:16.156Z,7.23
2019-01-26T07:54:21.660Z,5.40
2019-01-26T07:59:24.058Z,5.37
2019-01-26T08:04:26.262Z,6.13
2019-01-26T08:09:28.681Z,5.60
2019-01-26T08:14:32.318Z,6.83
2019-01-26T08:19:34.117Z,6.13
2019-01-26T08:24:36.234Z,6.90
2019-01-26T08:29:38.436Z,5.40
2019-01-26T08:34:40.234Z,5.07
2019-01-26T08:39:43.055Z,5.83
2019-01-26T08:44:45.265Z,6.20
2019-01-26T08:49:47.574Z,5.30
2019-01-26T08:54:49.271Z,5.60
2019-01-26T08:59:51.626Z,5.57
2019-01-26T09:04:55.228Z,4.07
2019-01-26T09:09:57.135Z,3.97
2019-01-26T09:14:59.302Z,5.40
2019-01-26T09:20:01.184Z,4.87
2019-01-26T09:25:05.621Z,5.23
2019-01-26T09:30:14.043Z,5.63
2019-01-26T09:35:16.193Z,5.43
2019-01-26T09:40:19.742Z,4.23
2019-01-26T09:45:21.941Z,3.90
2019-01-26T09:50:23.743Z,3.53
2019-01-26T09:55:25.454Z,4.80
2019-01-26T10:00:27.782Z,4.93
2019-01-26T10:05:30.999Z,5.57
2019-01-26T10:10:33.955Z,3.90
2019-01-26T10:15:37.631Z,7.27
2019-01-26T10:20:42.839Z,5.73
2019-01-26T10:25:48.835Z,6.27
2019-01-26T10:30:54.759Z,4.73
2019-01-26T10:36:10.677Z,5.50
2019-01-26T10:41:15.248Z,6.03
2019-01-26T10:46:17.070Z,5.20
2019-01-26T10:51:19.540Z,5.80
2019-01-26T10:56:21.906Z,6.23
2019-01-26T11:01:27.352Z,6.00
2019-01-26T11:06:29.480Z,5.77
2019-01-26T11:11:31.561Z,6.90
2019-01-26T11:16:33.667Z,9.73
2019-01-26T11:21:40.773Z,8.53
2019-01-26T11:26:49.284Z,9.00
2019-01-26T11:31:48.297Z,9.17
2019-01-26T11:36:49.994Z,6.43
2019-01-26T11:41:52.143Z,10.07
2019-01-26T11:46:53.992Z,10.63
2019-01-26T11:52:06.031Z,10.10
2019-01-26T11:57:09.588Z,10.50
2019-01-26T12:02:13.318Z,11.17
2019-01-26T12:12:26.931Z,9.10
2019-01-26T12:17:36.785Z,9.13
2019-01-26T12:22:56.836Z,12.77
2019-01-26T12:27:58.635Z,10.33
2019-01-26T12:33:00.415Z,8.63
2019-01-26T12:38:02.188Z,6.90
2019-01-26T12:43:03.961Z,10.30
2019-01-26T12:48:06.102Z,8.73
2019-01-26T12:53:07.871Z,7.37
2019-01-26T12:58:09.649Z,8.37
2019-01-26T13:03:12.486Z,8.53
2019-01-26T13:08:14.797Z,8.13
2019-01-26T13:13:18.641Z,8.77
2019-01-26T13:18:20.857Z,8.90
2019-01-26T13:23:22.799Z,9.43
2019-01-26T13:28:24.579Z,9.30
2019-01-26T13:33:26.486Z,6.90
2019-01-26T13:38:28.364Z,7.77
2019-01-26T13:43:30.111Z,6.33
2019-01-26T13:48:37.076Z,7.17
2019-01-26T13:53:39.171Z,9.80
2019-01-26T13:58:40.943Z,5.83
2019-01-26T14:03:44.790Z,4.67
2019-01-26T14:08:46.588Z,4.87
2019-01-26T14:13:48.596Z,6.10
2019-01-26T14:18:51.821Z,5.37
2019-01-26T14:23:53.620Z,4.80
2019-01-26T14:28:55.777Z,4.70
2019-01-26T14:33:57.893Z,6.20
2019-01-26T14:38:59.740Z,6.77
2019-01-26T14:44:02.258Z,7.00
2019-01-26T14:49:04.025Z,6.97
2019-01-26T14:54:05.821Z,8.00
2019-01-26T14:59:07.537Z,7.27
2019-01-26T15:04:09.361Z,6.47
2019-01-26T15:09:11.146Z,9.40
2019-01-26T15:14:12.970Z,8.97
2019-01-26T15:19:14.836Z,7.97
2019-01-26T15:24:16.657Z,7.70
2019-01-26T15:29:19.855Z,6.63
2019-01-26T15:34:21.732Z,7.70
2019-01-26T15:39:25.156Z,6.17
2019-01-26T15:44:27.028Z,7.30
2019-01-26T15:49:29.724Z,6.60
2019-01-26T15:54:31.603Z,6.87
2019-01-26T15:59:33.791Z,8.00
2019-01-26T16:04:35.986Z,4.70
2019-01-26T16:09:37.798Z,7.60
2019-01-26T16:14:39.637Z,9.37
2019-01-26T16:19:41.851Z,6.10
2019-01-26T16:24:43.901Z,7.47
2019-01-26T16:29:45.668Z,6.40
2019-01-26T16:34:47.445Z,6.40
2019-01-26T16:39:49.223Z,8.27
2019-01-26T16:44:51.047Z,5.70
2019-01-26T16:49:53.212Z,6.70
2019-01-26T16:54:55.722Z,5.17
2019-01-26T16:59:58.587Z,5.83
2019-01-26T17:05:01.389Z,5.40
2019-01-26T17:10:06.909Z,7.20
2019-01-26T17:15:10.167Z,5.57
2019-01-26T17:20:34.789Z,5.60
2019-01-26T17:25:33.632Z,7.43
2019-01-26T17:30:38.109Z,7.23
2019-01-26T17:35:39.895Z,7.13
2019-01-26T17:40:42.584Z,5.97
2019-01-26T17:45:44.412Z,7.70
2019-01-26T17:50:46.624Z,7.30
2019-01-26T17:55:48.430Z,10.80
2019-01-26T18:00:52.017Z,8.07
2019-01-26T18:05:53.853Z,8.60
2019-01-26T18:10:56.112Z,8.03
2019-01-26T18:15:57.989Z,7.40
2019-01-26T18:21:01.542Z,8.83
2019-01-26T18:26:03.965Z,5.83
2019-01-26T18:31:05.778Z,7.80
2019-01-26T18:36:08.775Z,6.97
2019-01-26T18:41:10.911Z,5.80
2019-01-26T18:46:12.807Z,5.10
2019-01-26T18:51:14.700Z,4.70
2019-01-26T18:56:16.491Z,5.80
2019-01-26T19:01:18.287Z,6.80
2019-01-26T19:06:22.933Z,10.00
2019-01-26T19:11:24.823Z,5.73
2019-01-26T19:16:27.023Z,5.97
2019-01-26T19:21:28.818Z,5.10
2019-01-26T19:26:30.557Z,8.30
2019-01-26T19:31:34.246Z,7.13
2019-01-26T19:36:36.868Z,6.40
2019-01-26T19:41:38.648Z,6.30
2019-01-26T19:46:40.440Z,6.13
2019-01-26T19:51:42.540Z,5.63
2019-01-26T19:56:44.591Z,6.60
2019-01-26T20:01:46.758Z,6.17
2019-01-26T20:06:48.969Z,5.53
2019-01-26T20:11:50.766Z,6.73
2019-01-26T20:16:52.641Z,7.73
2019-01-26T20:21:54.563Z,7.43
2019-01-26T20:26:56.627Z,5.67
2019-01-26T20:31:58.500Z,5.33
2019-01-26T20:37:00.398Z,5.47
2019-01-26T20:42:02.222Z,5.00
2019-01-26T20:47:03.987Z,4.70
2019-01-26T20:52:06.162Z,6.07
2019-01-26T20:57:08.038Z,5.20
2019-01-26T21:02:09.760Z,6.40
2019-01-26T21:07:13.933Z,4.53
2019-01-26T21:12:15.748Z,8.50
2019-01-26T21:17:17.957Z,6.73
2019-01-26T21:22:19.780Z,9.40
2019-01-26T21:27:21.577Z,9.57
2019-01-26T21:32:23.460Z,8.57
2019-01-26T21:37:25.337Z,10.03
2019-01-26T21:42:27.214Z,12.30
2019-01-26T21:47:29.009Z,8.20
2019-01-26T21:52:30.720Z,17.50
2019-01-26T21:57:32.820Z,15.40
2019-01-26T22:02:34.610Z,13.90
2019-01-26T22:07:38.807Z,16.13
2019-01-26T22:12:41.649Z,15.00
2019-01-26T22:17:43.833Z,18.57
2019-01-26T22:22:46.502Z,9.40
2019-01-26T22:27:48.276Z,22.80
2019-01-26T22:32:50.493Z,19.20
2019-01-26T22:37:52.306Z,19.50
2019-01-26T22:42:54.146Z,14.17
2019-01-26T22:47:56.869Z,16.80
2019-01-26T22:52:58.722Z,22.73
2019-01-26T22:58:02.308Z,23.40
2019-01-26T23:03:04.936Z,19.87
2019-01-26T23:08:08.056Z,20.57
2019-01-26T23:13:15.982Z,19.77
2019-01-26T23:18:27.071Z,12.00
2019-01-26T23:24:01.296Z,20.00
2019-01-26T23:29:25.096Z,25.27
2019-01-26T23:34:26.964Z,14.67
2019-01-26T23:39:29.906Z,14.70
2019-01-26T23:44:32.471Z,14.63
2019-01-26T23:49:34.350Z,18.93
2019-01-26T23:54:36.547Z,17.13
2019-01-26T23:59:38.410Z,24.97
